Time;durP1;ratioP1;P1;durP2;ratioP2;P2;SDS_P1;SDS_P2;PMS_P1;PMS_P2;Temp;Humidity;BMP_temperature;BMP_pressure;BME280_temperature;BME280_humidity;BME280_pressure;Samples;Min_cycle;Max_cycle;Signal;HPM_P1;HPM_P2
2023/04/30 00:00:45;;;;;;;5.10;4.00;;;;;;;9.40;86.09;98688.77;77482;1309;3028182;-62
2023/04/30 00:03:11;;;;;;;5.60;4.20;;;;;;;9.11;87.26;98692.48;78674;1323;3013496;-62
2023/04/30 00:05:38;;;;;;;3.20;2.40;;;;;;;8.96;87.98;98687.55;78709;1309;3011616;-62
2023/04/30 00:08:06;;;;;;;4.10;2.90;;;;;;;9.39;87.25;98688.00;77534;1309;3025739;-63
2023/04/30 00:10:33;;;;;;;4.40;3.50;;;;;;;9.67;85.37;98683.30;78743;1309;3012976;-62
2023/04/30 00:12:59;;;;;;;6.00;4.20;;;;;;;9.45;85.37;98672.90;78647;1309;3011594;-61
2023/04/30 00:15:27;;;;;;;7.50;4.70;;;;;;;9.30;86.26;98669.75;77594;1309;3026644;-62
2023/04/30 00:17:54;;;;;;;6.90;4.20;;;;;;;9.37;86.00;98666.96;78700;1309;3013453;-62
2023/04/30 00:20:21;;;;;;;7.00;4.90;;;;;;;9.22;86.23;98663.09;78651;1309;3013182;-60
2023/04/30 00:22:49;;;;;;;7.50;5.20;;;;;;;9.02;86.91;98655.70;77546;1309;3069202;-60
2023/04/30 00:25:16;;;;;;;3.60;2.80;;;;;;;8.80;87.79;98648.95;78814;1306;3013427;-61
2023/04/30 00:27:44;;;;;;;5.60;3.30;;;;;;;9.07;87.81;98647.48;78851;1307;3012121;-62
2023/04/30 00:30:13;;;;;;;4.40;3.50;;;;;;;9.43;86.18;98639.30;77621;1307;3052655;-61
2023/04/30 00:32:40;;;;;;;7.60;4.40;;;;;;;9.44;85.85;98636.98;78660;1309;3014201;-62
2023/04/30 00:35:08;;;;;;;6.20;4.60;;;;;;;9.24;86.56;98623.42;78730;1312;3013258;-61
2023/04/30 00:37:36;;;;;;;5.50;4.00;;;;;;;9.10;86.56;98612.19;77548;1306;3067523;-61
2023/04/30 00:40:05;;;;;;;7.10;4.30;;;;;;;8.83;87.64;98615.20;78694;1307;3013300;-62
2023/04/30 00:42:34;;;;;;;6.30;4.00;;;;;;;8.61;89.16;98615.98;78098;1309;3012909;-62
2023/04/30 00:45:01;;;;;;;3.50;2.20;;;;;;;8.46;90.49;98609.83;78608;1307;3013786;-62
2023/04/30 00:48:14;;;;;;;4.20;3.20;;;;;;;9.05;89.42;98605.41;79855;1301;3013560;-62
2023/04/30 00:50:43;;;;;;;4.70;3.10;;;;;;;9.25;87.75;98605.39;78866;1303;3013120;-61
2023/04/30 00:53:10;;;;;;;5.50;3.50;;;;;;;9.11;87.46;98602.52;78863;1304;3011955;-62
2023/04/30 00:55:39;;;;;;;5.70;3.90;;;;;;;9.03;87.86;98600.46;77852;1306;3053292;-62
2023/04/30 00:58:06;;;;;;;6.90;3.80;;;;;;;8.88;88.11;98599.86;78826;1306;3013132;-63
2023/04/30 01:00:36;;;;;;;5.40;3.80;;;;;;;8.64;88.99;98607.23;76278;1306;3013623;-62
2023/04/30 01:03:03;;;;;;;4.90;2.70;;;;;;;8.63;89.28;98604.33;79047;1301;3013017;-62
2023/04/30 01:05:30;;;;;;;6.20;3.00;;;;;;;8.83;88.93;98597.39;79018;1300;3012949;-62
2023/04/30 01:07:58;;;;;;;4.10;2.90;;;;;;;9.27;86.56;98588.52;77676;1306;3028592;-61
2023/04/30 01:10:43;;;;;;;5.20;3.50;;;;;;;9.24;86.17;98593.59;78982;1314;3019055;-62
2023/04/30 01:13:16;;;;;;;6.10;4.30;;;;;;;8.85;87.15;98585.61;77819;1306;3069372;-61
2023/04/30 01:16:17;;;;;;;5.80;3.90;;;;;;;8.70;87.98;98591.80;79245;1300;3011967;-62
2023/04/30 01:18:51;;;;;;;5.10;3.60;;;;;;;8.59;88.01;98593.77;77961;1297;3057031;-61
2023/04/30 01:21:20;;;;;;;5.00;3.50;;;;;;;8.46;88.85;98593.23;79264;1297;3011648;-62
2023/04/30 01:23:49;;;;;;;3.60;2.40;;;;;;;8.23;90.17;98591.16;77939;1298;3052741;-62
2023/04/30 01:26:20;;;;;;;3.80;2.60;;;;;;;8.60;89.26;98583.05;79198;1304;3018611;-61
2023/04/30 01:28:49;;;;;;;4.00;3.00;;;;;;;8.90;87.34;98579.66;77967;1302;3052751;-62
2023/04/30 01:31:17;;;;;;;5.60;3.80;;;;;;;8.87;86.96;98571.61;79214;1297;3013054;-61
2023/04/30 01:33:46;;;;;;;4.00;3.30;;;;;;;8.64;87.41;98570.92;78664;1297;3011915;-60
2023/04/30 01:36:55;;;;;;;4.40;3.30;;;;;;;8.61;88.07;98566.20;79204;1297;3013732;-61
2023/04/30 01:39:26;;;;;;;5.30;4.10;;;;;;;8.26;88.96;98566.96;77699;1309;3055876;-62
2023/04/30 01:42:11;;;;;;;3.30;1.90;;;;;;;8.02;91.05;98567.45;78891;1306;3011844;-61
2023/04/30 01:45:04;;;;;;;3.00;2.40;;;;;;;8.62;88.99;98569.27;77844;1300;3053031;-61
2023/04/30 01:47:38;;;;;;;;;;;;;;;8.95;86.99;98574.56;78061;1300;3053008;-61
2023/04/30 01:50:14;;;;;;;5.60;2.80;;;;;;;8.91;86.63;98570.35;79234;1297;3014215;-62
2023/04/30 01:52:49;;;;;;;3.80;2.90;;;;;;;8.84;86.93;98564.17;78005;1302;3050421;-60
2023/04/30 01:55:42;;;;;;;4.00;3.10;;;;;;;8.77;87.26;98563.05;78728;1301;3011642;-60
2023/04/30 01:58:11;;;;;;;4.30;3.00;;;;;;;8.72;86.78;98556.44;78013;1300;3056496;-61
2023/04/30 02:00:38;;;;;;;4.80;3.40;;;;;;;8.50;87.69;98558.00;79219;1298;3011806;-60
2023/04/30 02:03:05;;;;;;;1.90;1.50;;;;;;;8.35;89.12;98558.34;79296;1296;3011548;-62
2023/04/30 02:05:33;;;;;;;3.10;2.00;;;;;;;8.61;88.16;98545.48;78033;1301;3050700;-61
2023/04/30 02:08:00;;;;;;;3.40;2.60;;;;;;;9.15;86.47;98551.07;79230;1300;3020448;-61
2023/04/30 02:10:29;;;;;;;4.30;2.90;;;;;;;9.12;85.67;98548.66;79345;1300;3011677;-64
2023/04/30 02:12:57;;;;;;;4.50;3.00;;;;;;;9.13;85.61;98554.33;77939;1296;3055163;-62
2023/04/30 02:15:23;;;;;;;4.00;3.30;;;;;;;8.83;86.81;98553.58;79209;1297;3013649;-62
2023/04/30 02:17:51;;;;;;;4.40;3.20;;;;;;;8.63;87.39;98558.63;79202;1296;3011990;-63
2023/04/30 02:20:22;;;;;;;3.70;3.10;;;;;;;8.40;88.70;98561.66;78135;1300;3052825;-62
2023/04/30 02:22:49;;;;;;;2.30;1.60;;;;;;;8.41;89.32;98563.71;79247;1300;3014552;-62
2023/04/30 02:25:16;;;;;;;4.80;1.70;;;;;;;8.89;88.61;98566.08;79173;1297;3012802;-62
2023/04/30 02:27:44;;;;;;;2.40;2.00;;;;;;;9.22;86.32;98564.00;77964;1300;3055273;-61
2023/04/30 02:30:10;;;;;;;3.10;2.20;;;;;;;9.23;85.63;98570.40;79323;1297;3012320;-61
2023/04/30 02:32:37;;;;;;;3.60;2.90;;;;;;;8.91;86.03;98569.96;79036;1296;3013732;-62
2023/04/30 02:35:05;;;;;;;3.30;2.90;;;;;;;8.61;86.98;98570.41;78083;1300;3028894;-60
2023/04/30 02:37:32;;;;;;;4.50;3.20;;;;;;;8.44;88.03;98560.70;79256;1300;3012718;-60
2023/04/30 02:39:58;;;;;;;3.00;2.60;;;;;;;8.39;88.17;98562.27;79157;1300;3012973;-60
2023/04/30 02:42:26;;;;;;;1.90;1.50;;;;;;;8.10;88.84;98561.88;77947;1297;3026339;-60
2023/04/30 02:44:53;;;;;;;2.80;2.20;;;;;;;8.60;88.29;98565.23;79121;1297;3013614;-61
2023/04/30 02:47:19;;;;;;;3.20;2.50;;;;;;;9.05;85.87;98564.14;78994;1297;3011919;-61
2023/04/30 02:49:47;;;;;;;3.90;2.50;;;;;;;9.03;85.02;98567.25;77870;1296;3028615;-61
2023/04/30 02:52:14;;;;;;;4.80;3.10;;;;;;;8.85;85.27;98565.34;79152;1300;3013378;-63
2023/04/30 02:54:42;;;;;;;5.10;3.50;;;;;;;8.70;85.61;98560.05;79024;1297;3013353;-62
2023/04/30 02:57:10;;;;;;;4.90;3.40;;;;;;;8.49;86.55;98558.66;78029;1303;3056257;-61
2023/04/30 02:59:37;;;;;;;4.30;3.30;;;;;;;8.40;86.98;98555.00;79346;1297;3013679;-61
2023/04/30 03:02:04;;;;;;;2.70;1.90;;;;;;;8.18;88.04;98554.71;79209;1297;3011574;-62
2023/04/30 03:04:34;;;;;;;4.70;3.00;;;;;;;8.71;87.35;98545.84;78031;1300;3053310;-61
2023/04/30 03:07:02;;;;;;;4.40;3.50;;;;;;;8.88;85.07;98537.16;79331;1300;3013383;-62
2023/04/30 03:09:31;;;;;;;4.40;3.20;;;;;;;8.84;84.73;98539.71;77896;1300;3026156;-61
2023/04/30 03:11:58;;;;;;;4.40;3.40;;;;;;;8.71;85.07;98541.29;79186;1296;3012950;-62
2023/04/30 03:14:25;;;;;;;3.90;3.10;;;;;;;8.56;85.75;98538.81;79215;1297;3012337;-62
2023/04/30 03:16:52;;;;;;;5.70;3.40;;;;;;;8.49;86.20;98539.80;78044;1300;3053357;-61
2023/04/30 03:19:23;;;;;;;3.70;3.20;;;;;;;8.36;86.85;98540.48;79165;1303;3012995;-62
2023/04/30 03:21:52;;;;;;;3.40;2.10;;;;;;;8.12;88.02;98542.91;78013;1300;3052546;-63
2023/04/30 03:24:19;;;;;;;3.70;2.40;;;;;;;8.48;87.51;98546.85;79223;1300;3013807;-61
2023/04/30 03:26:46;;;;;;;3.90;2.90;;;;;;;9.06;85.30;98548.73;79159;1296;3013558;-62
2023/04/30 03:29:13;;;;;;;3.30;2.70;;;;;;;9.06;84.26;98549.77;77997;1300;3049160;-62
2023/04/30 03:31:40;;;;;;;4.60;3.00;;;;;;;8.97;84.39;98546.14;79316;1298;3012902;-62
2023/04/30 03:34:07;;;;;;;3.90;3.20;;;;;;;8.60;85.22;98552.35;79283;1300;3013176;-62
2023/04/30 03:36:34;;;;;;;4.30;2.80;;;;;;;8.43;86.13;98551.90;78069;1300;3025995;-61
2023/04/30 03:39:01;;;;;;;5.20;3.70;;;;;;;8.29;86.37;98548.39;79341;1300;3018905;-62
2023/04/30 03:41:28;;;;;;;3.20;2.10;;;;;;;8.18;87.72;98556.26;79333;1300;3013071;-61
2023/04/30 03:43:56;;;;;;;3.50;2.40;;;;;;;8.60;86.76;98551.80;78026;1301;3028814;-61
2023/04/30 03:46:23;;;;;;;4.80;2.60;;;;;;;9.01;84.94;98555.29;79225;1297;3013650;-63
2023/04/30 03:48:49;;;;;;;5.50;3.30;;;;;;;9.02;84.18;98548.45;79198;1300;3012924;-62
2023/04/30 03:51:19;;;;;;;4.70;3.30;;;;;;;8.86;83.92;98549.73;78095;1300;3025906;-61
2023/04/30 03:53:46;;;;;;;4.40;3.40;;;;;;;8.76;84.70;98539.59;79277;1297;3013116;-63
2023/04/30 03:56:15;;;;;;;5.90;3.30;;;;;;;8.61;85.34;98543.19;78714;1296;3013672;-61
2023/04/30 03:58:42;;;;;;;4.90;3.30;;;;;;;8.44;85.47;98542.92;79200;1298;3013421;-61
2023/04/30 04:01:08;;;;;;;2.40;1.80;;;;;;;8.34;86.40;98546.90;79266;1297;3013433;-60
2023/04/30 04:03:36;;;;;;;3.10;2.40;;;;;;;8.63;85.94;98542.85;77977;1300;3028294;-62
2023/04/30 04:06:04;;;;;;;2.80;2.30;;;;;;;9.22;83.92;98542.23;79295;1301;3012934;-62
2023/04/30 04:08:31;;;;;;;3.70;2.70;;;;;;;9.27;83.02;98539.60;79189;1300;3011795;-63
2023/04/30 04:10:59;;;;;;;3.80;2.60;;;;;;;8.94;83.26;98535.89;77962;1300;3050972;-61
2023/04/30 04:13:25;;;;;;;5.30;3.40;;;;;;;8.75;84.30;98527.75;79160;1297;3020486;-60
2023/04/30 04:15:52;;;;;;;4.60;3.20;;;;;;;8.48;85.42;98518.92;79245;1300;3011489;-60
2023/04/30 04:18:20;;;;;;;4.00;2.90;;;;;;;8.18;86.91;98515.65;78029;1300;3028433;-61
2023/04/30 04:20:46;;;;;;;6.40;1.50;;;;;;;8.13;87.40;98509.86;79293;1300;3019635;-60
2023/04/30 04:23:13;;;;;;;2.60;2.00;;;;;;;8.63;86.74;98511.09;79329;1296;3011654;-62
2023/04/30 04:25:43;;;;;;;2.60;1.90;;;;;;;9.22;84.36;98513.36;78061;1298;3029111;-61
2023/04/30 04:28:11;;;;;;;3.10;2.30;;;;;;;9.16;83.26;98516.23;79406;1296;3011324;-63
2023/04/30 04:30:40;;;;;;;3.20;2.50;;;;;;;8.85;84.53;98519.21;78747;1300;3011627;-62
2023/04/30 04:33:08;;;;;;;2.90;2.60;;;;;;;8.77;84.91;98522.73;79322;1298;3015925;-62
2023/04/30 04:35:35;;;;;;;3.80;3.10;;;;;;;8.77;84.98;98529.88;79299;1300;3012144;-61
2023/04/30 04:38:03;;;;;;;4.70;3.10;;;;;;;8.63;85.51;98531.88;77964;1300;3053022;-63
2023/04/30 04:40:30;;;;;;;2.40;1.50;;;;;;;8.59;85.78;98530.78;79412;1300;3012676;-62
2023/04/30 04:42:57;;;;;;;2.70;1.90;;;;;;;8.96;84.87;98529.31;79328;1300;3011615;-64
2023/04/30 04:45:25;;;;;;;2.10;1.70;;;;;;;9.41;82.47;98528.45;78135;1300;3049366;-60
2023/04/30 04:47:52;;;;;;;3.30;2.40;;;;;;;9.38;81.97;98532.00;79206;1298;3013637;-62
2023/04/30 04:50:19;;;;;;;3.10;2.00;;;;;;;9.00;83.51;98526.73;79222;1298;3012924;-62
2023/04/30 04:52:47;;;;;;;4.70;2.90;;;;;;;8.98;83.83;98530.41;78019;1302;3051160;-62
2023/04/30 04:55:14;;;;;;;3.60;2.40;;;;;;;8.79;84.56;98526.08;79175;1300;3013529;-62
2023/04/30 04:57:41;;;;;;;3.90;2.90;;;;;;;8.80;84.48;98529.70;79214;1300;3011525;-64
2023/04/30 05:00:10;;;;;;;4.20;2.40;;;;;;;8.61;85.30;98525.02;78006;1300;3028299;-61
2023/04/30 05:02:37;;;;;;;1.80;1.10;;;;;;;8.52;85.91;98521.25;79168;1296;3012901;-61
2023/04/30 05:05:04;;;;;;;4.30;1.50;;;;;;;9.08;84.93;98517.27;79228;1297;3013388;-62
2023/04/30 05:07:33;;;;;;;3.60;2.10;;;;;;;9.56;82.07;98518.84;77948;1300;3052161;-65
2023/04/30 05:10:00;;;;;;;2.60;2.00;;;;;;;9.60;81.66;98525.35;79300;1300;3013659;-63
2023/04/30 05:12:27;;;;;;;3.60;2.10;;;;;;;9.61;82.06;98526.31;79239;1302;3011811;-61
2023/04/30 05:14:54;;;;;;;3.20;2.00;;;;;;;9.32;82.20;98530.47;78185;1300;3049405;-61
2023/04/30 05:17:21;;;;;;;2.40;1.90;;;;;;;9.11;83.46;98530.33;79228;1297;3013761;-62
2023/04/30 05:19:49;;;;;;;3.30;2.30;;;;;;;8.90;84.05;98534.23;79302;1302;3011748;-61
2023/04/30 05:22:17;;;;;;;2.50;2.00;;;;;;;8.75;84.78;98535.28;77879;1300;3053046;-63
2023/04/30 05:24:43;;;;;;;3.50;1.10;;;;;;;8.76;85.21;98539.58;79259;1297;3012858;-62
2023/04/30 05:27:10;;;;;;;1.80;1.50;;;;;;;9.28;83.94;98540.52;79116;1297;3011804;-62
2023/04/30 05:29:38;;;;;;;3.40;1.50;;;;;;;9.52;81.70;98540.80;77925;1300;3028525;-61
2023/04/30 05:32:04;;;;;;;3.30;1.60;;;;;;;9.49;81.73;98542.89;79284;1300;3013678;-60
2023/04/30 05:34:31;;;;;;;3.90;1.90;;;;;;;9.48;82.08;98547.00;79219;1300;3013196;-63
2023/04/30 05:37:00;;;;;;;2.50;1.80;;;;;;;9.41;82.69;98550.98;78005;1302;3028396;-61
2023/04/30 05:39:27;;;;;;;3.50;2.30;;;;;;;9.31;83.31;98552.55;79277;1296;3013056;-61
2023/04/30 05:41:53;;;;;;;2.70;2.00;;;;;;;9.30;83.43;98554.38;79312;1296;3013553;-60
2023/04/30 05:44:21;;;;;;;3.90;2.20;;;;;;;9.13;83.17;98551.38;78148;1300;3051341;-60
2023/04/30 05:46:47;;;;;;;1.50;1.20;;;;;;;8.87;83.89;98554.01;79251;1300;3018761;-63
2023/04/30 05:49:14;;;;;;;3.00;1.80;;;;;;;9.35;83.37;98557.48;79057;1300;3013029;-61
2023/04/30 05:51:42;;;;;;;2.40;1.50;;;;;;;9.94;81.44;98554.92;78089;1300;3028347;-62
2023/04/30 05:54:08;;;;;;;5.20;2.10;;;;;;;9.78;80.74;98553.64;79246;1300;3013577;-61
2023/04/30 05:56:35;;;;;;;3.80;2.30;;;;;;;9.71;80.96;98551.48;79134;1298;3013196;-62
2023/04/30 05:59:03;;;;;;;4.90;2.00;;;;;;;9.42;81.65;98547.39;78215;1300;3025950;-62
2023/04/30 06:01:29;;;;;;;3.30;2.10;;;;;;;9.17;82.69;98545.86;79245;1300;3013085;-62
2023/04/30 06:03:58;;;;;;;2.50;1.90;;;;;;;8.97;83.38;98546.36;79413;1300;3011748;-61
2023/04/30 06:06:26;;;;;;;3.60;2.00;;;;;;;8.67;84.66;98541.23;78039;1300;3052667;-61
2023/04/30 06:08:53;;;;;;;1.30;0.90;;;;;;;8.62;85.30;98536.29;79265;1300;3013021;-61
2023/04/30 06:11:20;;;;;;;2.40;1.20;;;;;;;8.97;84.61;98534.27;79234;1297;3013446;-62
2023/04/30 06:13:48;;;;;;;3.10;1.70;;;;;;;9.48;82.90;98526.20;77973;1297;3049478;-63
2023/04/30 06:16:14;;;;;;;3.90;1.90;;;;;;;9.76;82.17;98527.69;79247;1300;3013122;-62
2023/04/30 06:18:41;;;;;;;2.50;1.60;;;;;;;9.59;81.63;98524.02;79257;1300;3013491;-64
2023/04/30 06:21:09;;;;;;;3.00;1.90;;;;;;;9.45;81.77;98518.93;78051;1300;3028424;-60
2023/04/30 06:23:36;;;;;;;5.00;1.90;;;;;;;9.31;82.00;98516.94;79269;1300;3013071;-63
2023/04/30 06:26:03;;;;;;;4.10;2.20;;;;;;;9.13;82.31;98515.34;79274;1296;3011627;-63
2023/04/30 06:28:31;;;;;;;2.00;1.60;;;;;;;9.01;82.93;98514.81;78036;1296;3025974;-62
2023/04/30 06:30:58;;;;;;;0.90;0.80;;;;;;;8.93;83.56;98505.73;79513;1296;3013289;-63
2023/04/30 06:33:24;;;;;;;2.30;1.30;;;;;;;9.41;83.05;98509.02;79205;1298;3012910;-62
2023/04/30 06:35:54;;;;;;;1.90;1.30;;;;;;;9.87;80.78;98514.18;77998;1297;3028869;-63
2023/04/30 06:38:20;;;;;;;1.50;1.40;;;;;;;9.90;80.45;98507.46;79162;1300;3012941;-62
2023/04/30 06:40:47;;;;;;;2.10;1.40;;;;;;;9.73;80.85;98504.52;79279;1297;3011909;-64
2023/04/30 06:43:16;;;;;;;2.80;1.60;;;;;;;9.59;81.15;98500.61;77971;1298;3049299;-63
2023/04/30 06:45:42;;;;;;;2.90;1.70;;;;;;;9.47;81.62;98504.47;79328;1297;3013013;-62
2023/04/30 06:48:09;;;;;;;2.10;1.90;;;;;;;9.53;82.03;98509.77;79283;1297;3012914;-62
2023/04/30 06:50:43;;;;;;;6.40;2.30;;;;;;;9.29;82.62;98512.33;77971;1297;3052908;-62
2023/04/30 06:53:13;;;;;;;2.00;1.10;;;;;;;8.96;84.14;98507.14;79372;1297;3011683;-62
2023/04/30 06:55:41;;;;;;;2.10;1.30;;;;;;;9.52;83.75;98509.86;78155;1298;3052966;-62
2023/04/30 06:58:08;;;;;;;3.30;1.80;;;;;;;10.24;81.64;98503.05;79249;1296;3013026;-61
2023/04/30 07:00:34;;;;;;;3.50;2.20;;;;;;;10.13;79.38;98513.50;79316;1300;3011748;-62
2023/04/30 07:03:03;;;;;;;2.60;1.80;;;;;;;10.04;79.60;98515.73;78002;1300;3026768;-61
2023/04/30 07:05:30;;;;;;;2.00;1.70;;;;;;;9.88;79.83;98510.42;79271;1300;3013012;-62
2023/04/30 07:08:00;;;;;;;2.70;1.90;;;;;;;9.87;80.68;98506.64;79305;1300;3012782;-60
2023/04/30 07:10:30;;;;;;;2.70;2.10;;;;;;;9.73;81.11;98511.13;77995;1300;3051528;-60
2023/04/30 07:12:56;;;;;;;4.40;2.30;;;;;;;9.61;82.04;98510.45;79334;1296;3016086;-60
2023/04/30 07:15:23;;;;;;;2.00;1.10;;;;;;;9.39;83.14;98514.64;79399;1297;3011806;-62
2023/04/30 07:17:50;;;;;;;2.30;1.60;;;;;;;9.76;82.01;98511.63;77970;1300;3049051;-62
2023/04/30 07:20:17;;;;;;;3.30;1.80;;;;;;;10.15;80.27;98508.80;79190;1300;3012907;-61
2023/04/30 07:22:44;;;;;;;3.90;2.00;;;;;;;10.32;79.46;98509.48;79128;1300;3012053;-61
2023/04/30 07:25:12;;;;;;;4.40;1.70;;;;;;;10.31;79.10;98509.86;78198;1297;3051545;-61
2023/04/30 07:27:39;;;;;;;2.10;1.60;;;;;;;10.28;79.12;98503.98;79344;1297;3013321;-61
2023/04/30 07:30:07;;;;;;;3.20;1.90;;;;;;;10.11;79.25;98508.70;79551;1300;3013522;-61
2023/04/30 07:32:36;;;;;;;2.70;1.80;;;;;;;10.12;79.58;98503.96;78067;1297;3049698;-60
2023/04/30 07:35:03;;;;;;;4.10;2.60;;;;;;;10.06;79.62;98505.10;79447;1302;3014220;-60
2023/04/30 07:37:30;;;;;;;5.30;2.90;;;;;;;9.80;80.29;98505.91;79200;1297;3012767;-63
2023/04/30 07:39:57;;;;;;;3.00;1.60;;;;;;;9.52;81.59;98503.39;78120;1296;3052517;-60
2023/04/30 07:42:24;;;;;;;2.60;1.70;;;;;;;10.00;81.07;98505.02;79376;1297;3021048;-62
2023/04/30 07:44:51;;;;;;;4.00;1.90;;;;;;;10.63;79.17;98498.73;79258;1298;3011732;-63
2023/04/30 07:47:19;;;;;;;3.40;1.90;;;;;;;10.80;77.96;98509.23;77992;1303;3049129;-63
2023/04/30 07:49:46;;;;;;;3.90;2.00;;;;;;;10.66;77.57;98508.70;79327;1299;3020527;-63
2023/04/30 07:52:13;;;;;;;3.10;2.10;;;;;;;10.49;77.54;98504.91;79249;1302;3012095;-63
2023/04/30 07:54:41;;;;;;;3.20;1.90;;;;;;;10.36;77.98;98504.44;77933;1299;3028211;-62
2023/04/30 07:57:07;;;;;;;3.90;2.20;;;;;;;10.26;78.66;98504.68;79159;1300;3013343;-64
2023/04/30 07:59:34;;;;;;;4.10;2.00;;;;;;;10.11;78.56;98514.30;79148;1301;3013790;-61
2023/04/30 08:02:02;;;;;;;3.30;2.10;;;;;;;9.95;79.15;98513.05;77996;1300;3028425;-63
2023/04/30 08:04:29;;;;;;;3.00;2.00;;;;;;;9.79;79.70;98509.98;79214;1303;3013299;-64
2023/04/30 08:06:55;;;;;;;1.90;1.30;;;;;;;9.81;80.45;98514.93;79123;1301;3011835;-65
2023/04/30 08:09:23;;;;;;;2.60;1.10;;;;;;;10.38;78.94;98510.25;78123;1302;3051124;-64
2023/04/30 08:11:50;;;;;;;2.60;1.60;;;;;;;10.84;76.57;98508.52;79124;1302;3013324;-64
2023/04/30 08:14:17;;;;;;;2.60;1.40;;;;;;;10.92;76.35;98503.34;79142;1301;3011826;-62
2023/04/30 08:16:45;;;;;;;2.70;1.90;;;;;;;10.76;76.24;98502.86;77985;1303;3026658;-62
2023/04/30 08:19:12;;;;;;;4.20;1.90;;;;;;;10.58;76.62;98498.65;79187;1303;3013565;-63
2023/04/30 08:21:38;;;;;;;2.60;1.90;;;;;;;10.51;77.03;98494.75;79185;1302;3011933;-64
2023/04/30 08:24:06;;;;;;;3.30;1.90;;;;;;;10.35;77.71;98488.79;78139;1300;3028308;-62
2023/04/30 08:26:32;;;;;;;6.10;2.50;;;;;;;10.21;77.85;98496.44;79238;1300;3012822;-61
2023/04/30 08:28:59;;;;;;;3.30;2.20;;;;;;;10.02;78.86;98497.31;79184;1297;3011556;-64
2023/04/30 08:31:27;;;;;;;5.00;2.60;;;;;;;9.90;79.76;98497.86;77878;1303;3028562;-63
2023/04/30 08:33:53;;;;;;;4.10;1.60;;;;;;;9.89;80.71;98498.23;79237;1302;3020496;-62
2023/04/30 08:36:20;;;;;;;2.10;1.60;;;;;;;10.29;79.43;98498.34;79292;1302;3013382;-63
2023/04/30 08:38:48;;;;;;;2.80;1.50;;;;;;;10.78;77.74;98493.58;77943;1302;3026730;-62
2023/04/30 08:41:15;;;;;;;3.60;2.10;;;;;;;10.81;76.86;98495.27;79242;1301;3018624;-64
2023/04/30 08:43:43;;;;;;;4.20;2.50;;;;;;;10.67;77.60;98498.44;79174;1302;3011602;-61
2023/04/30 08:46:12;;;;;;;4.30;2.10;;;;;;;10.47;77.81;98502.92;77951;1301;3049942;-63
2023/04/30 08:48:40;;;;;;;4.60;2.50;;;;;;;10.43;77.95;98508.83;79549;1301;3013237;-63
2023/04/30 08:51:06;;;;;;;4.60;2.60;;;;;;;10.24;78.69;98515.27;79171;1300;3011940;-63
2023/04/30 08:53:36;;;;;;;3.50;2.60;;;;;;;9.99;79.87;98524.15;77769;1300;3050647;-63
2023/04/30 08:56:03;;;;;;;5.20;3.00;;;;;;;9.99;79.95;98529.55;79116;1299;3011827;-62
2023/04/30 08:58:30;;;;;;;5.90;2.90;;;;;;;9.84;79.94;98534.84;79138;1300;3011566;-63
2023/04/30 09:00:58;;;;;;;4.20;1.50;;;;;;;9.83;80.20;98536.51;77796;1302;3050034;-62
2023/04/30 09:03:25;;;;;;;3.80;2.30;;;;;;;10.31;79.07;98531.75;79373;1303;3013341;-65
2023/04/30 09:05:52;;;;;;;4.80;3.20;;;;;;;10.85;77.14;98534.41;79054;1303;3011807;-62
2023/04/30 09:08:40;;;;;;;7.40;3.90;;;;;;;10.96;76.17;98537.36;77960;1297;3026739;-63
2023/04/30 09:11:23;;;;;;;5.80;3.70;;;;;;;10.89;76.24;98537.98;77947;1300;3057250;-63
2023/04/30 09:13:52;;;;;;;6.50;3.90;;;;;;;10.72;76.98;98540.27;77933;1302;3049313;-62
2023/04/30 09:16:21;;;;;;;5.80;4.00;;;;;;;10.60;77.41;98542.46;79313;1297;3011661;-62
2023/04/30 09:18:49;;;;;;;8.80;4.50;;;;;;;10.50;77.85;98543.54;78061;1298;3052812;-63
2023/04/30 09:21:16;;;;;;;6.90;3.70;;;;;;;10.44;78.41;98543.94;79095;1302;3013785;-65
2023/04/30 09:23:56;;;;;;;5.80;3.30;;;;;;;10.38;78.26;98549.79;79114;1297;3012077;-63
2023/04/30 09:26:37;;;;;;;7.20;3.80;;;;;;;10.35;78.19;98553.17;78078;1301;3056633;-62
2023/04/30 09:29:09;;;;;;;3.80;2.30;;;;;;;10.14;78.62;98553.32;78088;1300;3049694;-63
2023/04/30 09:31:36;;;;;;;5.00;2.80;;;;;;;10.70;78.20;98544.40;79259;1297;3011539;-64
2023/04/30 09:34:05;;;;;;;7.00;3.60;;;;;;;11.25;76.00;98539.71;78017;1302;3026550;-62
2023/04/30 09:36:32;;;;;;;11.50;6.50;;;;;;;11.25;75.34;98546.91;79311;1301;3015706;-62
2023/04/30 09:39:10;;;;;;;12.80;8.00;;;;;;;11.21;75.18;98550.38;79217;1303;3011648;-63
2023/04/30 09:41:38;;;;;;;14.70;8.80;;;;;;;10.97;75.73;98554.69;78050;1297;3051986;-62
2023/04/30 09:44:05;;;;;;;15.30;9.00;;;;;;;10.88;76.28;98558.02;79333;1298;3018608;-63
2023/04/30 09:46:33;;;;;;;16.70;10.00;;;;;;;10.74;76.77;98556.27;79028;1303;3011660;-64
2023/04/30 09:49:02;;;;;;;16.30;10.00;;;;;;;10.62;77.73;98561.40;78028;1299;3049954;-62
2023/04/30 09:51:29;;;;;;;15.50;8.60;;;;;;;10.48;77.92;98572.70;79145;1303;3013900;-64
2023/04/30 09:53:56;;;;;;;13.60;9.10;;;;;;;10.28;77.86;98575.21;79040;1300;3011787;-62
2023/04/30 09:56:27;;;;;;;12.40;8.30;;;;;;;10.28;78.01;98578.52;77803;1303;3051805;-64
2023/04/30 09:58:55;;;;;;;12.80;8.30;;;;;;;10.28;77.67;98576.09;79062;1299;3011844;-64
2023/04/30 10:01:28;;;;;;;5.60;3.70;;;;;;;10.24;77.78;98576.16;77832;1302;3028455;-64
2023/04/30 10:03:54;;;;;;;8.70;5.20;;;;;;;10.89;76.74;98566.52;78990;1299;3011545;-64
2023/04/30 10:06:22;;;;;;;9.20;6.40;;;;;;;11.49;74.39;98570.46;77671;1306;3050147;-65
2023/04/30 10:08:55;;;;;;;12.90;7.10;;;;;;;11.65;73.63;98569.03;79201;1299;3019248;-63
2023/04/30 10:11:27;;;;;;;11.40;7.10;;;;;;;11.55;73.24;98575.95;77829;1303;3069075;-65
2023/04/30 10:14:00;;;;;;;9.60;5.90;;;;;;;11.47;74.12;98572.01;79089;1303;3011952;-62
2023/04/30 10:16:52;;;;;;;9.20;6.30;;;;;;;11.21;74.01;98578.43;77857;1302;3057128;-64
2023/04/30 10:19:24;;;;;;;10.70;6.30;;;;;;;11.02;74.77;98579.17;77756;1299;3049734;-64
2023/04/30 10:21:51;;;;;;;9.20;5.50;;;;;;;10.84;75.12;98576.31;78937;1302;3012180;-63
2023/04/30 10:24:19;;;;;;;11.20;6.00;;;;;;;10.74;75.93;98573.42;77853;1302;3026775;-63
2023/04/30 10:26:46;;;;;;;7.80;5.00;;;;;;;10.63;76.12;98582.63;79218;1302;3012919;-63
2023/04/30 10:29:14;;;;;;;7.80;4.90;;;;;;;10.61;76.60;98588.44;79099;1303;3011956;-63
2023/04/30 10:31:44;;;;;;;7.60;3.80;;;;;;;10.50;76.64;98586.59;77767;1301;3050998;-64
2023/04/30 10:34:36;;;;;;;5.60;2.20;;;;;;;10.25;78.10;98578.60;79011;1300;3013067;-62
2023/04/30 10:37:09;;;;;;;4.40;2.50;;;;;;;10.83;77.43;98573.80;77760;1302;3049443;-62
2023/04/30 10:39:35;;;;;;;5.30;2.70;;;;;;;11.36;75.72;98566.60;79047;1300;3011612;-63
2023/04/30 10:42:05;;;;;;;6.40;3.60;;;;;;;11.16;75.06;98570.39;77823;1300;3049164;-63
2023/04/30 10:44:33;;;;;;;3.90;2.90;;;;;;;10.85;76.25;98569.40;79174;1302;3013366;-63
2023/04/30 10:47:03;;;;;;;5.00;3.20;;;;;;;10.64;77.06;98573.77;78584;1302;3013182;-64
2023/04/30 10:49:30;;;;;;;5.00;3.10;;;;;;;10.30;77.98;98574.55;79178;1299;3013904;-63
2023/04/30 10:52:02;;;;;;;6.50;4.00;;;;;;;10.41;78.26;98576.91;79170;1297;3011573;-63
2023/04/30 10:54:32;;;;;;;6.00;4.00;;;;;;;10.35;78.46;98580.11;78000;1302;3050076;-63
2023/04/30 10:57:13;;;;;;;5.20;3.70;;;;;;;10.12;79.06;98578.63;79178;1303;3011627;-62
2023/04/30 10:59:43;;;;;;;8.00;3.90;;;;;;;10.09;79.73;98575.69;78026;1302;3050220;-62
2023/04/30 11:02:10;;;;;;;2.90;1.80;;;;;;;10.19;79.47;98575.02;79183;1302;3013070;-64
2023/04/30 11:05:08;;;;;;;3.60;2.00;;;;;;;10.88;78.12;98577.77;78709;1302;3013172;-63
2023/04/30 11:07:36;;;;;;;5.80;2.50;;;;;;;11.40;75.45;98574.54;77936;1300;3069059;-63
2023/04/30 11:10:05;;;;;;;4.20;2.90;;;;;;;11.60;74.63;98575.42;79247;1300;3013221;-63
2023/04/30 11:12:34;;;;;;;5.90;2.90;;;;;;;11.61;74.67;98580.79;78470;1306;3011924;-64
2023/04/30 11:15:14;;;;;;;5.10;3.30;;;;;;;11.53;74.22;98581.38;79006;1300;3012999;-63
2023/04/30 11:17:44;;;;;;;7.20;3.70;;;;;;;11.46;74.50;98582.33;77874;1302;3049299;-62
2023/04/30 11:20:18;;;;;;;6.20;3.50;;;;;;;11.16;75.30;98587.73;78969;1303;3011518;-63
2023/04/30 11:22:46;;;;;;;6.50;3.70;;;;;;;11.00;74.58;98584.57;78073;1302;3053026;-64
2023/04/30 11:25:18;;;;;;;7.00;3.60;;;;;;;10.80;75.29;98585.92;79219;1302;3012926;-64
2023/04/30 11:27:45;;;;;;;6.30;3.60;;;;;;;10.74;75.86;98581.48;78058;1301;3057205;-63
2023/04/30 11:30:16;;;;;;;6.30;3.40;;;;;;;10.57;76.31;98593.96;79190;1300;3020539;-63